EISG/SXL METAR and TAF weather

Enter ICAO airport designator
Station Type Date Time Source
EISG METAR 2019/10/15 09:00 UTC NOAA

EISG 150900Z 16006KT 110V180 CAVOK 10/10 Q0999


Station Type Date Time Source
EISG Decoded METAR 2019/10/15 09:00 UTC NOAA

Station name not available
Oct 15, 2019 - 05:00 AM EDT / 2019.10.15 0900 UTC
Wind: from the SSE (160 degrees) at 7 MPH (6 KT) (direction variable):0
Visibility: greater than 7 mile(s):0
Temperature: 50 F (10 C)
Dew Point: 50 F (10 C)
Relative Humidity: 100%
Pressure (altimeter): 29.50 in. Hg (0999 hPa)
ob: EISG 150900Z 16006KT 110V180 CAVOK 10/10 Q0999
cycle: 9

Station Type Date Time Source
EISG TAF UTC NOAA

Error!

Example: see airport list